sensor_id;sensor_type;location;lat;lon;timestamp;temperature;humidity
6520;DHT22;3293;51.690;5.982;2022-12-31T00:04:02;12.50;99.90
6520;DHT22;3293;51.690;5.982;2022-12-31T00:09:05;12.50;99.90
6520;DHT22;3293;51.690;5.982;2022-12-31T00:14:06;12.50;99.90
6520;DHT22;3293;51.690;5.982;2022-12-31T00:19:09;12.50;99.90
6520;DHT22;3293;51.690;5.982;2022-12-31T00:24:10;12.50;99.90
6520;DHT22;3293;51.690;5.982;2022-12-31T00:29:10;12.50;99.90
6520;DHT22;3293;51.690;5.982;2022-12-31T00:34:10;12.50;99.90
6520;DHT22;3293;51.690;5.982;2022-12-31T00:39:10;12.60;99.90
6520;DHT22;3293;51.690;5.982;2022-12-31T00:44:11;12.70;99.90
6520;DHT22;3293;51.690;5.982;2022-12-31T00:49:11;12.70;99.90
6520;DHT22;3293;51.690;5.982;2022-12-31T00:54:11;12.70;99.90
6520;DHT22;3293;51.690;5.982;2022-12-31T00:59:11;12.70;99.90
6520;DHT22;3293;51.690;5.982;2022-12-31T01:04:16;12.70;99.90
6520;DHT22;3293;51.690;5.982;2022-12-31T01:09:17;12.80;99.90
6520;DHT22;3293;51.690;5.982;2022-12-31T01:14:18;12.80;99.90
6520;DHT22;3293;51.690;5.982;2022-12-31T01:19:21;12.70;99.90
6520;DHT22;3293;51.690;5.982;2022-12-31T01:24:22;12.70;99.90
6520;DHT22;3293;51.690;5.982;2022-12-31T01:29:22;12.70;99.90
6520;DHT22;3293;51.690;5.982;2022-12-31T01:34:22;12.70;99.90
6520;DHT22;3293;51.690;5.982;2022-12-31T01:39:22;12.70;99.90
6520;DHT22;3293;51.690;5.982;2022-12-31T01:49:41;12.60;99.90
6520;DHT22;3293;51.690;5.982;2022-12-31T01:54:50;12.50;99.90
6520;DHT22;3293;51.690;5.982;2022-12-31T01:59:53;12.40;99.90
6520;DHT22;3293;51.690;5.982;2022-12-31T02:04:56;12.40;99.90
6520;DHT22;3293;51.690;5.982;2022-12-31T02:09:57;12.40;99.90
6520;DHT22;3293;51.690;5.982;2022-12-31T02:14:58;12.50;99.90
6520;DHT22;3293;51.690;5.982;2022-12-31T02:30:35;12.60;99.90
6520;DHT22;3293;51.690;5.982;2022-12-31T02:35:58;12.50;99.90
6520;DHT22;3293;51.690;5.982;2022-12-31T02:41:00;12.50;99.90
6520;DHT22;3293;51.690;5.982;2022-12-31T02:46:22;12.50;99.90
6520;DHT22;3293;51.690;5.982;2022-12-31T02:51:39;12.40;99.90
6520;DHT22;3293;51.690;5.982;2022-12-31T03:02:11;12.20;99.90
6520;DHT22;3293;51.690;5.982;2022-12-31T03:07:17;12.20;99.90
6520;DHT22;3293;51.690;5.982;2022-12-31T03:12:20;12.10;99.90
6520;DHT22;3293;51.690;5.982;2022-12-31T03:17:39;12.10;99.90
6520;DHT22;3293;51.690;5.982;2022-12-31T03:22:41;12.10;99.90
6520;DHT22;3293;51.690;5.982;2022-12-31T03:27:43;12.20;99.90
6520;DHT22;3293;51.690;5.982;2022-12-31T03:32:44;12.10;99.90
6520;DHT22;3293;51.690;5.982;2022-12-31T03:37:45;12.20;99.90
6520;DHT22;3293;51.690;5.982;2022-12-31T03:42:45;12.30;99.90
6520;DHT22;3293;51.690;5.982;2022-12-31T03:47:45;12.30;99.90
6520;DHT22;3293;51.690;5.982;2022-12-31T03:52:46;12.30;99.90
6520;DHT22;3293;51.690;5.982;2022-12-31T03:57:45;12.30;99.90
6520;DHT22;3293;51.690;5.982;2022-12-31T04:02:46;12.30;99.90
6520;DHT22;3293;51.690;5.982;2022-12-31T04:07:47;12.30;99.90
6520;DHT22;3293;51.690;5.982;2022-12-31T04:12:47;12.30;99.90
6520;DHT22;3293;51.690;5.982;2022-12-31T04:17:47;12.30;99.90
6520;DHT22;3293;51.690;5.982;2022-12-31T04:22:47;12.30;99.90
6520;DHT22;3293;51.690;5.982;2022-12-31T04:27:47;12.30;99.90
6520;DHT22;3293;51.690;5.982;2022-12-31T04:32:47;12.30;99.90
6520;DHT22;3293;51.690;5.982;2022-12-31T04:37:47;12.40;99.90
6520;DHT22;3293;51.690;5.982;2022-12-31T04:42:47;12.40;99.90
6520;DHT22;3293;51.690;5.982;2022-12-31T04:47:47;12.40;99.90
6520;DHT22;3293;51.690;5.982;2022-12-31T04:52:47;12.40;99.90
6520;DHT22;3293;51.690;5.982;2022-12-31T04:57:46;12.40;99.90
6520;DHT22;3293;51.690;5.982;2022-12-31T05:02:46;12.40;99.90
6520;DHT22;3293;51.690;5.982;2022-12-31T05:07:46;12.30;99.90
6520;DHT22;3293;51.690;5.982;2022-12-31T05:12:46;12.10;99.90
6520;DHT22;3293;51.690;5.982;2022-12-31T05:17:46;12.20;99.90
6520;DHT22;3293;51.690;5.982;2022-12-31T05:22:46;12.20;99.90
6520;DHT22;3293;51.690;5.982;2022-12-31T05:27:46;12.00;99.90
6520;DHT22;3293;51.690;5.982;2022-12-31T05:32:46;12.00;99.90
6520;DHT22;3293;51.690;5.982;2022-12-31T05:37:46;12.00;99.90
6520;DHT22;3293;51.690;5.982;2022-12-31T05:42:46;12.20;99.90
6520;DHT22;3293;51.690;5.982;2022-12-31T05:47:46;12.40;99.90
6520;DHT22;3293;51.690;5.982;2022-12-31T05:52:46;12.60;99.90
6520;DHT22;3293;51.690;5.982;2022-12-31T05:57:46;12.60;99.90
6520;DHT22;3293;51.690;5.982;2022-12-31T06:02:46;12.70;99.90
6520;DHT22;3293;51.690;5.982;2022-12-31T06:07:46;12.70;99.90
6520;DHT22;3293;51.690;5.982;2022-12-31T06:12:46;12.70;99.90
6520;DHT22;3293;51.690;5.982;2022-12-31T06:17:46;12.70;99.90
6520;DHT22;3293;51.690;5.982;2022-12-31T06:22:46;12.80;99.90
6520;DHT22;3293;51.690;5.982;2022-12-31T06:27:46;12.90;99.90
6520;DHT22;3293;51.690;5.982;2022-12-31T06:32:46;13.00;99.90
6520;DHT22;3293;51.690;5.982;2022-12-31T06:37:46;13.10;99.90
6520;DHT22;3293;51.690;5.982;2022-12-31T06:42:46;13.30;99.90
6520;DHT22;3293;51.690;5.982;2022-12-31T06:47:46;13.40;99.90
6520;DHT22;3293;51.690;5.982;2022-12-31T06:52:46;13.30;99.90
6520;DHT22;3293;51.690;5.982;2022-12-31T06:57:46;13.30;99.90
6520;DHT22;3293;51.690;5.982;2022-12-31T07:08:17;13.20;99.90
6520;DHT22;3293;51.690;5.982;2022-12-31T07:18:42;13.50;99.90
6520;DHT22;3293;51.690;5.982;2022-12-31T07:23:46;13.70;99.90
6520;DHT22;3293;51.690;5.982;2022-12-31T07:29:06;13.80;99.90
6520;DHT22;3293;51.690;5.982;2022-12-31T07:39:40;14.10;99.90
6520;DHT22;3293;51.690;5.982;2022-12-31T07:44:47;14.30;99.90
6520;DHT22;3293;51.690;5.982;2022-12-31T07:49:50;14.40;99.90
6520;DHT22;3293;51.690;5.982;2022-12-31T07:54:50;14.60;99.90
6520;DHT22;3293;51.690;5.982;2022-12-31T08:05:05;14.80;99.90
6520;DHT22;3293;51.690;5.982;2022-12-31T08:15:37;14.90;99.90
6520;DHT22;3293;51.690;5.982;2022-12-31T08:20:54;14.80;99.90
6520;DHT22;3293;51.690;5.982;2022-12-31T08:31:07;14.60;99.90
6520;DHT22;3293;51.690;5.982;2022-12-31T08:51:44;14.70;99.90
6520;DHT22;3293;51.690;5.982;2022-12-31T08:56:59;14.80;99.90
6520;DHT22;3293;51.690;5.982;2022-12-31T09:18:25;15.00;99.90
6520;DHT22;3293;51.690;5.982;2022-12-31T09:23:25;14.80;99.90
6520;DHT22;3293;51.690;5.982;2022-12-31T09:34:17;14.90;99.90
6520;DHT22;3293;51.690;5.982;2022-12-31T09:55:36;14.90;99.90
6520;DHT22;3293;51.690;5.982;2022-12-31T10:00:43;14.60;99.90
6520;DHT22;3293;51.690;5.982;2022-12-31T10:11:08;14.30;99.90
6520;DHT22;3293;51.690;5.982;2022-12-31T10:26:47;14.50;99.90
6520;DHT22;3293;51.690;5.982;2022-12-31T10:32:24;14.60;99.90
6520;DHT22;3293;51.690;5.982;2022-12-31T10:37:33;14.70;99.90
6520;DHT22;3293;51.690;5.982;2022-12-31T10:58:52;15.30;99.90
6520;DHT22;3293;51.690;5.982;2022-12-31T11:20:37;15.50;99.90
6520;DHT22;3293;51.690;5.982;2022-12-31T11:41:36;15.70;99.90
6520;DHT22;3293;51.690;5.982;2022-12-31T11:52:16;15.90;99.90
6520;DHT22;3293;51.690;5.982;2022-12-31T11:57:40;15.90;99.90
6520;DHT22;3293;51.690;5.982;2022-12-31T12:02:45;15.80;99.90
6520;DHT22;3293;51.690;5.982;2022-12-31T12:07:47;15.80;99.90
6520;DHT22;3293;51.690;5.982;2022-12-31T12:12:52;15.70;99.90
6520;DHT22;3293;51.690;5.982;2022-12-31T12:17:58;15.70;99.90
6520;DHT22;3293;51.690;5.982;2022-12-31T12:23:12;15.60;99.90
6520;DHT22;3293;51.690;5.982;2022-12-31T12:33:19;15.70;99.90
6520;DHT22;3293;51.690;5.982;2022-12-31T12:38:21;15.80;99.90
6520;DHT22;3293;51.690;5.982;2022-12-31T12:43:28;15.70;99.90
6520;DHT22;3293;51.690;5.982;2022-12-31T12:59:19;15.50;99.90
6520;DHT22;3293;51.690;5.982;2022-12-31T13:20:22;15.50;99.90
6520;DHT22;3293;51.690;5.982;2022-12-31T13:30:41;15.60;99.90
6520;DHT22;3293;51.690;5.982;2022-12-31T13:35:57;15.50;99.90
6520;DHT22;3293;51.690;5.982;2022-12-31T13:51:44;15.60;99.90
6520;DHT22;3293;51.690;5.982;2022-12-31T13:56:45;15.60;99.90
6520;DHT22;3293;51.690;5.982;2022-12-31T14:01:56;15.60;99.90
6520;DHT22;3293;51.690;5.982;2022-12-31T14:07:18;15.60;99.90
6520;DHT22;3293;51.690;5.982;2022-12-31T14:12:41;15.60;99.90
6520;DHT22;3293;51.690;5.982;2022-12-31T14:28:41;15.60;99.90
6520;DHT22;3293;51.690;5.982;2022-12-31T14:39:18;15.80;99.90
6520;DHT22;3293;51.690;5.982;2022-12-31T15:05:23;15.60;99.90
6520;DHT22;3293;51.690;5.982;2022-12-31T15:10:47;15.60;99.90
6520;DHT22;3293;51.690;5.982;2022-12-31T15:26:55;15.40;99.90
6520;DHT22;3293;51.690;5.982;2022-12-31T15:31:57;15.30;99.90
6520;DHT22;3293;51.690;5.982;2022-12-31T15:37:26;15.40;99.90
6520;DHT22;3293;51.690;5.982;2022-12-31T15:42:41;15.30;99.90
6520;DHT22;3293;51.690;5.982;2022-12-31T15:47:46;15.30;99.90
6520;DHT22;3293;51.690;5.982;2022-12-31T15:52:56;15.30;99.90
6520;DHT22;3293;51.690;5.982;2022-12-31T15:58:04;15.20;99.90
6520;DHT22;3293;51.690;5.982;2022-12-31T16:03:23;15.20;99.90
6520;DHT22;3293;51.690;5.982;2022-12-31T16:08:25;15.10;99.90
6520;DHT22;3293;51.690;5.982;2022-12-31T16:13:28;15.10;99.90
6520;DHT22;3293;51.690;5.982;2022-12-31T16:18:39;15.10;99.90
6520;DHT22;3293;51.690;5.982;2022-12-31T16:23:48;15.00;99.90
6520;DHT22;3293;51.690;5.982;2022-12-31T16:28:49;15.00;99.90
6520;DHT22;3293;51.690;5.982;2022-12-31T16:33:49;15.00;99.90
6520;DHT22;3293;51.690;5.982;2022-12-31T16:38:49;14.90;99.90
6520;DHT22;3293;51.690;5.982;2022-12-31T16:43:49;14.90;99.90
6520;DHT22;3293;51.690;5.982;2022-12-31T16:49:05;14.90;99.90
6520;DHT22;3293;51.690;5.982;2022-12-31T16:54:28;14.80;99.90
6520;DHT22;3293;51.690;5.982;2022-12-31T16:59:33;14.80;99.90
6520;DHT22;3293;51.690;5.982;2022-12-31T17:04:35;14.80;99.90
6520;DHT22;3293;51.690;5.982;2022-12-31T17:09:35;14.70;99.90
6520;DHT22;3293;51.690;5.982;2022-12-31T17:14:47;14.60;99.90
6520;DHT22;3293;51.690;5.982;2022-12-31T17:19:49;14.60;99.90
6520;DHT22;3293;51.690;5.982;2022-12-31T17:24:50;14.50;99.90
6520;DHT22;3293;51.690;5.982;2022-12-31T17:29:51;14.50;99.90
6520;DHT22;3293;51.690;5.982;2022-12-31T17:34:51;14.50;99.90
6520;DHT22;3293;51.690;5.982;2022-12-31T17:39:53;14.50;99.90
6520;DHT22;3293;51.690;5.982;2022-12-31T17:45:00;14.50;99.90
6520;DHT22;3293;51.690;5.982;2022-12-31T17:50:05;14.40;99.90
6520;DHT22;3293;51.690;5.982;2022-12-31T17:55:07;14.40;99.90
6520;DHT22;3293;51.690;5.982;2022-12-31T18:00:16;14.50;99.90
6520;DHT22;3293;51.690;5.982;2022-12-31T18:05:18;14.50;99.90
6520;DHT22;3293;51.690;5.982;2022-12-31T18:10:20;14.50;99.90
6520;DHT22;3293;51.690;5.982;2022-12-31T18:15:22;14.50;99.90
6520;DHT22;3293;51.690;5.982;2022-12-31T18:20:23;14.60;99.90
6520;DHT22;3293;51.690;5.982;2022-12-31T18:25:24;14.60;99.90
6520;DHT22;3293;51.690;5.982;2022-12-31T18:30:24;14.50;99.90
6520;DHT22;3293;51.690;5.982;2022-12-31T18:35:24;14.50;99.90
6520;DHT22;3293;51.690;5.982;2022-12-31T18:40:25;14.40;99.90
6520;DHT22;3293;51.690;5.982;2022-12-31T18:45:25;14.50;99.90
6520;DHT22;3293;51.690;5.982;2022-12-31T18:50:25;14.50;99.90
6520;DHT22;3293;51.690;5.982;2022-12-31T18:55:38;14.50;99.90
6520;DHT22;3293;51.690;5.982;2022-12-31T19:00:39;14.60;99.90
6520;DHT22;3293;51.690;5.982;2022-12-31T19:05:39;14.50;99.90
6520;DHT22;3293;51.690;5.982;2022-12-31T19:10:39;14.40;99.90
6520;DHT22;3293;51.690;5.982;2022-12-31T19:15:44;14.50;99.90
6520;DHT22;3293;51.690;5.982;2022-12-31T19:20:44;14.50;99.90
6520;DHT22;3293;51.690;5.982;2022-12-31T19:25:46;14.40;99.90
6520;DHT22;3293;51.690;5.982;2022-12-31T19:30:46;14.50;99.90
6520;DHT22;3293;51.690;5.982;2022-12-31T19:35:46;14.60;99.90
6520;DHT22;3293;51.690;5.982;2022-12-31T19:40:46;14.70;99.90
6520;DHT22;3293;51.690;5.982;2022-12-31T19:45:47;14.60;99.90
6520;DHT22;3293;51.690;5.982;2022-12-31T19:50:51;14.50;99.90
6520;DHT22;3293;51.690;5.982;2022-12-31T19:55:52;14.50;99.90
6520;DHT22;3293;51.690;5.982;2022-12-31T20:00:54;14.50;99.90
6520;DHT22;3293;51.690;5.982;2022-12-31T20:06:06;14.50;99.90
6520;DHT22;3293;51.690;5.982;2022-12-31T20:11:17;14.50;99.90
6520;DHT22;3293;51.690;5.982;2022-12-31T20:16:21;14.60;99.90
6520;DHT22;3293;51.690;5.982;2022-12-31T20:21:23;14.60;99.90
6520;DHT22;3293;51.690;5.982;2022-12-31T20:26:24;14.70;99.90
6520;DHT22;3293;51.690;5.982;2022-12-31T20:31:25;14.70;99.90
6520;DHT22;3293;51.690;5.982;2022-12-31T20:36:25;14.80;99.90
6520;DHT22;3293;51.690;5.982;2022-12-31T20:41:27;14.80;99.90
6520;DHT22;3293;51.690;5.982;2022-12-31T20:46:30;14.90;99.90
6520;DHT22;3293;51.690;5.982;2022-12-31T20:51:32;14.90;99.90
6520;DHT22;3293;51.690;5.982;2022-12-31T20:56:35;14.90;99.90
6520;DHT22;3293;51.690;5.982;2022-12-31T21:01:36;14.80;99.90
6520;DHT22;3293;51.690;5.982;2022-12-31T21:06:36;14.70;99.90
6520;DHT22;3293;51.690;5.982;2022-12-31T21:11:36;14.60;99.90
6520;DHT22;3293;51.690;5.982;2022-12-31T21:16:54;14.60;99.90
6520;DHT22;3293;51.690;5.982;2022-12-31T21:21:54;14.60;99.90
6520;DHT22;3293;51.690;5.982;2022-12-31T21:26:55;14.70;99.90
6520;DHT22;3293;51.690;5.982;2022-12-31T21:31:55;14.80;99.90
6520;DHT22;3293;51.690;5.982;2022-12-31T21:36:55;14.80;99.90
6520;DHT22;3293;51.690;5.982;2022-12-31T21:41:55;14.80;99.90
6520;DHT22;3293;51.690;5.982;2022-12-31T21:46:58;14.80;99.90
6520;DHT22;3293;51.690;5.982;2022-12-31T21:52:16;14.80;99.90
6520;DHT22;3293;51.690;5.982;2022-12-31T21:57:25;14.80;99.90
6520;DHT22;3293;51.690;5.982;2022-12-31T22:02:26;14.90;99.90
6520;DHT22;3293;51.690;5.982;2022-12-31T22:07:45;14.90;99.90
6520;DHT22;3293;51.690;5.982;2022-12-31T22:12:45;14.90;99.90
6520;DHT22;3293;51.690;5.982;2022-12-31T22:17:45;14.80;99.90
6520;DHT22;3293;51.690;5.982;2022-12-31T22:22:45;14.70;99.90
6520;DHT22;3293;51.690;5.982;2022-12-31T22:27:45;14.60;99.90
6520;DHT22;3293;51.690;5.982;2022-12-31T22:32:45;14.70;99.90
6520;DHT22;3293;51.690;5.982;2022-12-31T22:37:46;14.70;99.90
6520;DHT22;3293;51.690;5.982;2022-12-31T22:42:46;14.60;99.90
6520;DHT22;3293;51.690;5.982;2022-12-31T22:47:46;14.60;99.90
6520;DHT22;3293;51.690;5.982;2022-12-31T22:52:46;14.70;99.90
6520;DHT22;3293;51.690;5.982;2022-12-31T22:57:46;14.70;99.90
6520;DHT22;3293;51.690;5.982;2022-12-31T23:02:46;14.70;99.90
6520;DHT22;3293;51.690;5.982;2022-12-31T23:07:46;14.80;99.90
6520;DHT22;3293;51.690;5.982;2022-12-31T23:12:46;14.70;99.90
6520;DHT22;3293;51.690;5.982;2022-12-31T23:17:48;14.70;99.90
6520;DHT22;3293;51.690;5.982;2022-12-31T23:23:07;14.60;99.90
6520;DHT22;3293;51.690;5.982;2022-12-31T23:28:13;14.70;99.90
6520;DHT22;3293;51.690;5.982;2022-12-31T23:33:21;14.80;99.90
6520;DHT22;3293;51.690;5.982;2022-12-31T23:38:22;14.90;99.90
6520;DHT22;3293;51.690;5.982;2022-12-31T23:43:22;14.90;99.90
6520;DHT22;3293;51.690;5.982;2022-12-31T23:48:21;14.80;99.90
6520;DHT22;3293;51.690;5.982;2022-12-31T23:53:22;14.80;99.90
6520;DHT22;3293;51.690;5.982;2022-12-31T23:58:22;14.80;99.90
